createdAt,value
2019-05-17T00:01:10.809Z,52.26
2019-05-17T00:03:37.783Z,52.45
2019-05-17T00:06:06.658Z,52.25
2019-05-17T00:08:34.945Z,52.30
2019-05-17T00:11:02.472Z,52.24
2019-05-17T00:13:29.474Z,52.44
2019-05-17T00:15:56.681Z,52.30
2019-05-17T00:18:23.738Z,52.30
2019-05-17T00:20:50.703Z,52.41
2019-05-17T00:23:17.776Z,52.39
2019-05-17T00:25:46.966Z,52.25
2019-05-17T00:28:13.769Z,52.42
2019-05-17T00:30:40.611Z,52.44
2019-05-17T00:33:08.090Z,52.24
2019-05-17T00:35:37.353Z,52.35
2019-05-17T00:38:03.631Z,52.24
2019-05-17T00:40:30.456Z,52.28
2019-05-17T00:42:57.253Z,52.32
2019-05-17T00:45:26.745Z,52.45
2019-05-17T00:47:53.730Z,52.23
2019-05-17T00:50:21.678Z,52.36
2019-05-17T00:52:48.640Z,52.43
2019-05-17T00:55:17.537Z,52.30
2019-05-17T00:57:44.143Z,52.26
2019-05-17T01:00:11.449Z,52.16
2019-05-17T01:02:38.363Z,52.27
2019-05-17T01:05:06.386Z,52.21
2019-05-17T01:07:33.360Z,52.37
2019-05-17T01:10:00.429Z,52.50
2019-05-17T01:12:27.342Z,52.19
2019-05-17T01:14:54.203Z,52.14
2019-05-17T01:17:21.045Z,52.33
2019-05-17T01:19:47.850Z,52.28
2019-05-17T01:22:16.744Z,52.46
2019-05-17T01:24:43.308Z,52.41
2019-05-17T01:27:10.100Z,52.41
2019-05-17T01:29:37.000Z,52.36
2019-05-17T01:32:03.857Z,52.57
2019-05-17T01:34:30.671Z,52.27
2019-05-17T01:36:57.593Z,52.44
2019-05-17T01:39:26.726Z,52.53
2019-05-17T01:41:53.089Z,52.30
2019-05-17T01:44:19.987Z,52.41
2019-05-17T01:46:46.907Z,52.12
2019-05-17T01:49:13.727Z,52.32
2019-05-17T01:51:40.600Z,52.33
2019-05-17T01:54:07.570Z,52.24
2019-05-17T01:56:34.326Z,52.38
2019-05-17T01:59:01.126Z,52.51
2019-05-17T02:01:28.295Z,52.44
2019-05-17T02:03:57.369Z,52.23
2019-05-17T02:06:23.725Z,52.19
2019-05-17T02:08:50.630Z,52.40
2019-05-17T02:11:18.446Z,52.34
2019-05-17T02:13:46.739Z,52.42
2019-05-17T02:16:13.696Z,52.45
2019-05-17T02:18:40.636Z,52.17
2019-05-17T02:21:07.590Z,52.27
2019-05-17T02:23:36.962Z,52.16
2019-05-17T02:26:02.930Z,52.35
2019-05-17T02:28:32.027Z,52.35
2019-05-17T02:30:58.321Z,52.29
2019-05-17T02:33:25.128Z,52.18
2019-05-17T02:35:53.630Z,52.40
2019-05-17T02:38:22.478Z,52.49
2019-05-17T02:40:49.477Z,52.28
2019-05-17T02:43:16.433Z,52.47
2019-05-17T02:45:43.640Z,52.16
2019-05-17T02:48:13.418Z,52.33
2019-05-17T02:50:39.387Z,52.49
2019-05-17T02:53:06.359Z,52.36
2019-05-17T02:55:33.461Z,52.50
2019-05-17T02:58:02.946Z,52.51
2019-05-17T03:00:33.310Z,52.46
2019-05-17T03:02:58.211Z,52.26
2019-05-17T03:05:25.236Z,52.46
2019-05-17T03:07:52.895Z,52.48
2019-05-17T03:10:25.210Z,52.44
2019-05-17T03:12:48.646Z,52.33
2019-05-17T03:15:15.667Z,52.21
2019-05-17T03:17:44.335Z,52.38
2019-05-17T03:20:12.840Z,52.39
2019-05-17T03:22:39.759Z,52.47
2019-05-17T03:25:06.701Z,52.46
2019-05-17T03:27:33.851Z,52.44
2019-05-17T03:30:04.256Z,52.47
2019-05-17T03:32:35.447Z,52.52
2019-05-17T03:34:58.071Z,52.52
2019-05-17T03:37:29.937Z,52.54
2019-05-17T03:39:53.724Z,52.41
2019-05-17T03:42:22.586Z,52.52
2019-05-17T03:44:52.904Z,52.40
2019-05-17T03:47:18.213Z,52.25
2019-05-17T03:49:45.212Z,52.40
2019-05-17T03:52:13.583Z,52.35
2019-05-17T03:54:43.071Z,52.53
2019-05-17T03:57:09.295Z,52.49
2019-05-17T03:59:36.298Z,52.51
2019-05-17T04:02:03.622Z,52.52
2019-05-17T04:04:33.086Z,52.51
2019-05-17T04:07:03.154Z,52.49
2019-05-17T04:09:28.801Z,52.52
2019-05-17T04:11:55.663Z,52.29
2019-05-17T04:14:22.709Z,52.47
2019-05-17T04:16:49.604Z,52.48
2019-05-17T04:19:16.523Z,52.54
2019-05-17T04:21:43.325Z,52.38
2019-05-17T04:24:12.732Z,52.58
2019-05-17T04:26:38.938Z,52.47
2019-05-17T04:29:05.832Z,52.53
2019-05-17T04:31:34.964Z,52.50
2019-05-17T04:34:02.932Z,52.42
2019-05-17T04:36:32.190Z,52.48
2019-05-17T04:38:58.489Z,52.38
2019-05-17T04:41:39.756Z,52.49
2019-05-17T04:43:54.009Z,52.51
2019-05-17T04:46:23.654Z,52.51
2019-05-17T04:48:49.433Z,52.38
2019-05-17T04:51:16.241Z,52.40
2019-05-17T04:53:43.322Z,52.47
2019-05-17T04:56:13.695Z,52.27
2019-05-17T04:58:39.026Z,52.55
2019-05-17T05:01:05.939Z,52.51
2019-05-17T05:03:32.887Z,52.41
2019-05-17T05:06:02.936Z,52.60
2019-05-17T05:08:28.542Z,52.46
2019-05-17T05:10:55.497Z,52.49
2019-05-17T05:13:22.879Z,52.51
2019-05-17T05:15:52.226Z,52.35
2019-05-17T05:18:18.729Z,52.47
2019-05-17T05:20:46.042Z,52.39
2019-05-17T05:23:13.531Z,52.48
2019-05-17T05:25:42.901Z,52.40
2019-05-17T05:28:11.343Z,52.62
2019-05-17T05:30:38.421Z,52.43
2019-05-17T05:33:05.443Z,52.32
2019-05-17T05:35:32.452Z,52.41
2019-05-17T05:38:01.994Z,52.51
2019-05-17T05:40:28.441Z,52.47
2019-05-17T05:42:55.419Z,52.35
2019-05-17T05:45:25.200Z,52.44
2019-05-17T05:47:52.230Z,52.46
2019-05-17T05:50:21.804Z,52.52
2019-05-17T05:52:48.291Z,52.29
2019-05-17T05:55:15.306Z,52.45
2019-05-17T05:57:42.417Z,52.65
2019-05-17T06:00:09.732Z,52.32
2019-05-17T06:02:38.315Z,52.58
2019-05-17T06:05:05.320Z,52.66
2019-05-17T06:07:32.428Z,52.54
2019-05-17T06:10:02.027Z,52.59
2019-05-17T06:12:28.338Z,52.29
2019-05-17T06:14:55.618Z,52.50
2019-05-17T06:17:22.583Z,52.61
2019-05-17T06:19:51.554Z,52.68
2019-05-17T06:22:18.603Z,52.59
2019-05-17T06:24:46.408Z,52.51
2019-05-17T06:27:21.477Z,52.49
2019-05-17T06:29:48.348Z,52.48
2019-05-17T06:32:16.467Z,52.59
2019-05-17T06:34:43.559Z,52.44
2019-05-17T06:37:12.710Z,52.62
2019-05-17T06:39:41.804Z,52.62
2019-05-17T06:42:08.010Z,52.71
2019-05-17T06:44:34.960Z,52.43
2019-05-17T06:47:02.643Z,52.56
2019-05-17T06:49:31.674Z,52.46
2019-05-17T06:51:58.522Z,52.60
2019-05-17T06:54:25.508Z,52.57
2019-05-17T06:56:52.656Z,52.49
2019-05-17T06:59:19.792Z,52.61
2019-05-17T07:01:46.861Z,52.66
2019-05-17T07:04:13.884Z,52.60
2019-05-17T07:06:40.854Z,52.57
2019-05-17T07:09:09.880Z,52.59
2019-05-17T07:11:36.412Z,52.56
2019-05-17T07:14:05.204Z,52.70
2019-05-17T07:16:32.173Z,52.61
2019-05-17T07:18:59.725Z,52.52
2019-05-17T07:21:26.861Z,52.69
2019-05-17T07:23:53.715Z,52.54
2019-05-17T07:26:20.796Z,52.60
2019-05-17T07:28:49.765Z,52.54
2019-05-17T07:31:19.380Z,52.52
2019-05-17T07:33:45.692Z,52.53
2019-05-17T07:36:12.512Z,52.51
2019-05-17T07:38:39.766Z,52.57
2019-05-17T07:41:06.958Z,52.37
2019-05-17T07:43:33.901Z,52.65
2019-05-17T07:46:00.871Z,52.61
2019-05-17T07:48:27.824Z,52.63
2019-05-17T07:50:54.679Z,52.77
2019-05-17T07:53:21.797Z,52.67
2019-05-17T07:55:50.620Z,52.53
2019-05-17T07:58:21.321Z,52.46
2019-05-17T08:00:51.206Z,52.70
2019-05-17T08:03:24.859Z,52.51
2019-05-17T08:05:53.307Z,52.56
2019-05-17T08:08:20.912Z,52.48
2019-05-17T08:10:50.741Z,52.81
2019-05-17T08:13:29.129Z,52.56
2019-05-17T08:15:45.101Z,52.89
2019-05-17T08:18:12.034Z,52.71
2019-05-17T08:20:40.171Z,52.59
2019-05-17T08:23:07.258Z,52.46
2019-05-17T08:25:34.140Z,52.54
2019-05-17T08:28:00.910Z,53.11
2019-05-17T08:30:30.186Z,53.77
2019-05-17T08:32:56.198Z,54.34
2019-05-17T08:35:23.011Z,54.18
2019-05-17T08:37:50.033Z,53.87
2019-05-17T08:40:16.868Z,53.70
2019-05-17T08:42:43.661Z,53.60
2019-05-17T08:45:10.481Z,53.87
2019-05-17T08:47:39.537Z,53.16
2019-05-17T08:50:05.792Z,53.75
2019-05-17T08:52:32.583Z,53.15
2019-05-17T08:55:00.382Z,53.62
2019-05-17T08:57:30.070Z,53.55
2019-05-17T08:59:55.859Z,53.67
2019-05-17T09:02:22.644Z,53.43
2019-05-17T09:04:49.881Z,53.67
2019-05-17T09:07:16.800Z,53.62
2019-05-17T09:09:43.578Z,53.73
2019-05-17T09:12:11.059Z,53.79
2019-05-17T09:14:39.970Z,53.52
2019-05-17T09:17:06.533Z,53.43
2019-05-17T09:19:33.315Z,53.17
2019-05-17T09:22:00.087Z,53.20
2019-05-17T09:24:26.943Z,53.73
2019-05-17T09:26:53.754Z,54.86
2019-05-17T09:29:20.532Z,54.84
2019-05-17T09:31:47.327Z,54.10
2019-05-17T09:34:14.111Z,53.58
2019-05-17T09:36:41.061Z,54.74
2019-05-17T09:39:09.498Z,54.29
2019-05-17T09:41:36.420Z,54.04
2019-05-17T09:44:14.251Z,53.98
2019-05-17T09:46:31.714Z,53.61
2019-05-17T09:49:01.006Z,53.31
2019-05-17T09:51:27.006Z,53.13
2019-05-17T09:53:53.782Z,52.93
2019-05-17T09:56:20.784Z,53.08
2019-05-17T09:58:49.484Z,53.05
2019-05-17T10:01:16.200Z,53.18
2019-05-17T10:03:42.987Z,53.12
2019-05-17T10:06:09.865Z,53.08
2019-05-17T10:08:36.636Z,53.05
2019-05-17T10:11:09.681Z,53.02
2019-05-17T10:13:34.845Z,52.94
2019-05-17T10:16:01.624Z,52.86
2019-05-17T10:18:29.599Z,52.88
2019-05-17T10:20:56.449Z,52.81
2019-05-17T10:23:23.225Z,52.71
2019-05-17T10:25:49.998Z,52.68
2019-05-17T10:28:16.803Z,52.77
2019-05-17T10:30:43.606Z,52.70
2019-05-17T10:33:10.449Z,52.68
2019-05-17T10:35:37.249Z,52.67
2019-05-17T10:38:04.061Z,52.70
2019-05-17T10:40:30.826Z,52.50
2019-05-17T10:42:57.612Z,52.40
2019-05-17T10:45:24.393Z,52.29
2019-05-17T10:47:51.183Z,52.31
2019-05-17T10:50:20.394Z,52.01
2019-05-17T10:52:46.472Z,52.48
2019-05-17T10:55:13.258Z,52.33
2019-05-17T10:57:40.030Z,52.38
2019-05-17T11:00:06.812Z,52.18
2019-05-17T11:02:33.590Z,52.00
2019-05-17T11:05:00.904Z,52.21
2019-05-17T11:07:27.854Z,52.10
2019-05-17T11:09:54.609Z,52.05
2019-05-17T11:12:21.404Z,51.95
2019-05-17T11:14:55.902Z,52.22
2019-05-17T11:17:16.708Z,51.95
2019-05-17T11:19:43.478Z,52.24
2019-05-17T11:22:10.253Z,52.06
2019-05-17T11:24:37.032Z,52.51
2019-05-17T11:27:03.803Z,52.25
2019-05-17T11:29:30.592Z,52.33
2019-05-17T11:31:57.386Z,52.43
2019-05-17T11:34:25.667Z,52.43
2019-05-17T11:36:52.751Z,52.65
2019-05-17T11:39:19.528Z,52.71
2019-05-17T11:41:46.318Z,52.61
2019-05-17T11:44:13.093Z,52.50
2019-05-17T11:46:39.866Z,52.51
2019-05-17T11:49:06.651Z,52.51
2019-05-17T11:51:33.420Z,52.39
2019-05-17T11:54:00.207Z,52.45
2019-05-17T11:56:26.978Z,52.32
2019-05-17T11:58:53.790Z,52.19
2019-05-17T12:01:20.556Z,52.35
2019-05-17T12:03:47.348Z,52.34
2019-05-17T12:06:14.115Z,52.31
2019-05-17T12:08:40.926Z,52.17
2019-05-17T12:11:07.685Z,52.24
2019-05-17T12:13:34.447Z,52.28
2019-05-17T12:16:01.226Z,52.25
2019-05-17T12:18:28.006Z,52.22
2019-05-17T12:20:54.802Z,52.15
2019-05-17T12:23:21.591Z,52.41
2019-05-17T12:25:48.455Z,52.32
2019-05-17T12:28:15.339Z,52.41
2019-05-17T12:30:42.206Z,52.71
2019-05-17T12:33:09.111Z,52.47
2019-05-17T12:35:35.999Z,52.62
2019-05-17T12:38:02.852Z,52.67
2019-05-17T12:40:29.880Z,52.73
2019-05-17T12:42:56.897Z,52.72
2019-05-17T12:45:24.136Z,52.74
2019-05-17T12:47:51.047Z,52.80
2019-05-17T12:50:19.687Z,52.87
2019-05-17T12:52:49.696Z,52.94
2019-05-17T12:55:16.597Z,52.97
2019-05-17T12:57:43.536Z,52.92
2019-05-17T13:00:10.530Z,52.98
2019-05-17T13:02:37.594Z,53.01
2019-05-17T13:05:04.589Z,52.96
2019-05-17T13:07:31.480Z,52.83
2019-05-17T13:09:58.465Z,53.07
2019-05-17T13:12:25.334Z,53.06
2019-05-17T13:14:53.334Z,52.99
2019-05-17T13:17:20.278Z,52.98
2019-05-17T13:19:47.241Z,52.94
2019-05-17T13:22:14.181Z,53.06
2019-05-17T13:24:40.972Z,53.00
2019-05-17T13:27:07.916Z,52.98
2019-05-17T13:29:34.763Z,53.00
2019-05-17T13:32:01.587Z,53.00
2019-05-17T13:34:28.605Z,53.07
2019-05-17T13:36:55.584Z,52.98
2019-05-17T13:39:24.228Z,53.05
2019-05-17T13:41:51.151Z,52.88
2019-05-17T13:44:18.031Z,53.01
2019-05-17T13:46:44.912Z,52.93
2019-05-17T13:49:11.742Z,53.00
2019-05-17T13:51:38.751Z,52.98
2019-05-17T13:54:05.786Z,53.08
2019-05-17T13:56:32.766Z,53.02
2019-05-17T13:58:59.625Z,53.07
2019-05-17T14:01:27.579Z,53.07
2019-05-17T14:03:54.437Z,53.12
2019-05-17T14:06:21.249Z,52.93
2019-05-17T14:08:49.898Z,53.25
2019-05-17T14:11:17.005Z,53.07
2019-05-17T14:13:43.853Z,53.14
2019-05-17T14:16:10.654Z,53.13
2019-05-17T14:18:42.197Z,53.15
2019-05-17T14:21:09.178Z,53.06
2019-05-17T14:23:36.102Z,53.13
2019-05-17T14:26:03.170Z,53.01
2019-05-17T14:28:30.260Z,53.12
2019-05-17T14:30:57.223Z,53.15
2019-05-17T14:33:24.320Z,53.18
2019-05-17T14:35:51.463Z,53.06
2019-05-17T14:38:18.427Z,53.22
2019-05-17T14:41:05.739Z,53.08
2019-05-17T14:43:14.031Z,53.16
2019-05-17T14:45:40.966Z,53.12
2019-05-17T14:48:07.843Z,53.24
2019-05-17T14:50:34.775Z,53.07
2019-05-17T14:53:01.724Z,53.28
2019-05-17T14:55:30.913Z,53.14
2019-05-17T14:57:57.790Z,53.31
2019-05-17T15:00:26.806Z,53.13
2019-05-17T15:02:53.863Z,53.22
2019-05-17T15:05:20.755Z,53.26
2019-05-17T15:07:47.578Z,53.30
2019-05-17T15:10:14.504Z,53.27
2019-05-17T15:12:41.589Z,53.29
2019-05-17T15:15:08.515Z,53.13
2019-05-17T15:17:35.518Z,53.20
2019-05-17T15:20:02.708Z,53.13
2019-05-17T15:22:29.783Z,53.24
2019-05-17T15:24:57.683Z,53.21
2019-05-17T15:27:24.597Z,53.14
2019-05-17T15:29:51.642Z,53.24
2019-05-17T15:32:18.975Z,53.10
2019-05-17T15:34:46.031Z,53.25
2019-05-17T15:37:12.853Z,53.23
2019-05-17T15:39:39.689Z,53.28
2019-05-17T15:42:06.551Z,53.36
2019-05-17T15:44:33.384Z,53.19
2019-05-17T15:47:00.303Z,53.33
2019-05-17T15:49:27.246Z,53.23
2019-05-17T15:51:54.180Z,53.19
2019-05-17T15:54:21.072Z,53.30
2019-05-17T15:56:47.940Z,53.29
2019-05-17T15:59:14.996Z,53.28
2019-05-17T16:01:44.006Z,53.31
2019-05-17T16:04:11.075Z,53.50
2019-05-17T16:06:37.992Z,53.37
2019-05-17T16:09:05.943Z,53.47
2019-05-17T16:11:32.845Z,53.44
2019-05-17T16:13:59.683Z,53.36
2019-05-17T16:16:26.511Z,53.52
2019-05-17T16:18:57.534Z,53.60
2019-05-17T16:21:24.425Z,53.62
2019-05-17T16:23:51.354Z,53.58
2019-05-17T16:26:18.250Z,53.46
2019-05-17T16:28:45.267Z,53.32
2019-05-17T16:31:12.237Z,53.61
2019-05-17T16:33:39.178Z,53.61
2019-05-17T16:36:06.033Z,53.49
2019-05-17T16:38:33.066Z,53.63
2019-05-17T16:40:59.880Z,53.72
2019-05-17T16:43:26.863Z,53.64
2019-05-17T16:45:53.904Z,53.73
2019-05-17T16:48:20.801Z,53.70
2019-05-17T16:50:47.753Z,53.70
2019-05-17T16:53:14.730Z,53.72
2019-05-17T16:55:41.612Z,53.90
2019-05-17T16:58:08.485Z,53.70
2019-05-17T17:00:36.240Z,53.90
2019-05-17T17:03:03.251Z,54.01
2019-05-17T17:05:30.196Z,53.87
2019-05-17T17:07:57.242Z,53.99
2019-05-17T17:10:26.162Z,53.85
2019-05-17T17:12:53.171Z,53.64
2019-05-17T17:15:20.136Z,53.10
2019-05-17T17:17:47.015Z,54.56
2019-05-17T17:20:13.941Z,53.95
2019-05-17T17:22:43.171Z,54.40
2019-05-17T17:25:11.109Z,54.52
2019-05-17T17:27:37.966Z,54.89
2019-05-17T17:30:04.887Z,54.77
2019-05-17T17:32:33.627Z,55.19
2019-05-17T17:35:00.643Z,54.67
2019-05-17T17:37:27.514Z,54.28
2019-05-17T17:39:54.316Z,54.67
2019-05-17T17:42:21.084Z,54.58
2019-05-17T17:44:47.893Z,54.61
2019-05-17T17:47:14.677Z,54.30
2019-05-17T17:49:41.459Z,54.09
2019-05-17T17:52:08.243Z,54.49
2019-05-17T17:54:35.000Z,54.63
2019-05-17T17:57:01.799Z,54.27
2019-05-17T17:59:28.618Z,54.11
2019-05-17T18:01:55.426Z,54.26
2019-05-17T18:04:22.197Z,54.54
2019-05-17T18:06:48.988Z,54.54
2019-05-17T18:09:15.793Z,54.34
2019-05-17T18:11:42.573Z,54.20
2019-05-17T18:14:13.235Z,54.04
2019-05-17T18:16:38.162Z,54.52
2019-05-17T18:19:04.943Z,53.69
2019-05-17T18:21:31.721Z,54.34
2019-05-17T18:23:58.516Z,54.03
2019-05-17T18:26:25.290Z,54.13
2019-05-17T18:28:52.074Z,54.74
2019-05-17T18:31:18.841Z,54.67
2019-05-17T18:33:45.619Z,53.94
2019-05-17T18:36:12.417Z,54.02
2019-05-17T18:38:39.186Z,54.91
2019-05-17T18:41:05.984Z,54.33
2019-05-17T18:43:32.751Z,54.31
2019-05-17T18:45:59.526Z,54.54
2019-05-17T18:48:26.288Z,54.73
2019-05-17T18:50:53.079Z,54.30
2019-05-17T18:53:19.862Z,54.38
2019-05-17T18:55:46.661Z,53.98
2019-05-17T18:58:13.470Z,54.97
2019-05-17T19:00:40.233Z,54.55
2019-05-17T19:03:07.020Z,54.41
2019-05-17T19:05:33.794Z,54.32
2019-05-17T19:08:00.599Z,54.68
2019-05-17T19:10:27.370Z,54.11
2019-05-17T19:12:54.157Z,54.66
2019-05-17T19:15:20.947Z,54.41
2019-05-17T19:17:47.732Z,54.04
2019-05-17T19:20:14.519Z,54.23
2019-05-17T19:22:41.366Z,54.07
2019-05-17T19:25:08.172Z,54.18
2019-05-17T19:27:34.964Z,54.38
2019-05-17T19:30:01.741Z,54.26
2019-05-17T19:32:28.975Z,54.43
2019-05-17T19:34:55.847Z,54.17
2019-05-17T19:37:22.618Z,54.54
2019-05-17T19:39:49.424Z,54.04
2019-05-17T19:42:16.287Z,54.71
2019-05-17T19:44:57.734Z,54.17
2019-05-17T19:47:11.606Z,54.01
2019-05-17T19:49:38.435Z,54.27
2019-05-17T19:52:05.215Z,54.47
2019-05-17T19:54:32.037Z,54.71
2019-05-17T19:56:58.842Z,54.90
2019-05-17T19:59:27.734Z,55.58
2019-05-17T20:01:54.674Z,55.53
2019-05-17T20:04:21.630Z,55.40
2019-05-17T20:06:48.531Z,55.41
2019-05-17T20:09:15.416Z,55.59
2019-05-17T20:11:42.306Z,55.21
2019-05-17T20:14:09.123Z,55.02
2019-05-17T20:16:36.031Z,55.57
2019-05-17T20:19:03.795Z,55.19
2019-05-17T20:21:31.088Z,55.12
2019-05-17T20:23:57.910Z,55.20
2019-05-17T20:26:24.789Z,55.19
2019-05-17T20:28:51.591Z,54.92
2019-05-17T20:31:18.440Z,55.11
2019-05-17T20:33:45.216Z,55.01
2019-05-17T20:36:12.053Z,55.31
2019-05-17T20:38:38.849Z,55.06
2019-05-17T20:41:05.641Z,54.88
2019-05-17T20:43:32.813Z,55.23
2019-05-17T20:45:59.626Z,55.08
2019-05-17T20:48:26.494Z,55.31
2019-05-17T20:50:53.487Z,54.84
2019-05-17T20:53:20.423Z,55.15
2019-05-17T20:55:47.281Z,54.68
2019-05-17T20:58:14.309Z,55.17
2019-05-17T21:00:41.280Z,55.38
2019-05-17T21:03:08.076Z,54.96
2019-05-17T21:05:36.797Z,55.09
2019-05-17T21:08:05.297Z,55.11
2019-05-17T21:10:32.114Z,55.47
2019-05-17T21:12:58.968Z,55.10
2019-05-17T21:15:25.909Z,55.21
2019-05-17T21:17:52.783Z,54.92
2019-05-17T21:20:19.695Z,54.94
2019-05-17T21:22:46.608Z,55.22
2019-05-17T21:25:13.520Z,54.79
2019-05-17T21:27:40.406Z,55.02
2019-05-17T21:30:07.397Z,54.94
2019-05-17T21:32:34.298Z,54.51
2019-05-17T21:35:01.176Z,54.84
2019-05-17T21:37:28.059Z,54.71
2019-05-17T21:39:55.342Z,54.72
2019-05-17T21:42:22.326Z,54.81
2019-05-17T21:44:49.355Z,54.65
2019-05-17T21:47:16.272Z,54.94
2019-05-17T21:49:43.184Z,54.72
2019-05-17T21:52:10.097Z,54.85
2019-05-17T21:54:37.018Z,54.83
2019-05-17T21:57:03.860Z,54.48
2019-05-17T21:59:30.691Z,54.96
2019-05-17T22:01:57.625Z,54.62
2019-05-17T22:04:26.937Z,54.82
2019-05-17T22:06:53.195Z,54.89
2019-05-17T22:09:19.970Z,54.79
2019-05-17T22:11:48.525Z,54.72
2019-05-17T22:14:15.597Z,54.90
2019-05-17T22:16:42.503Z,54.75
2019-05-17T22:19:09.385Z,54.77
2019-05-17T22:21:38.000Z,54.65
2019-05-17T22:24:04.929Z,54.73
2019-05-17T22:26:31.993Z,54.75
2019-05-17T22:28:59.059Z,54.87
2019-05-17T22:31:26.054Z,54.86
2019-05-17T22:33:53.011Z,54.92
2019-05-17T22:36:19.942Z,54.54
2019-05-17T22:38:46.790Z,54.94
2019-05-17T22:41:13.796Z,54.76
2019-05-17T22:43:40.745Z,54.83
2019-05-17T22:46:09.274Z,54.56
2019-05-17T22:48:37.486Z,54.76
2019-05-17T22:51:04.560Z,54.82
2019-05-17T22:53:31.529Z,54.64
2019-05-17T22:55:59.128Z,54.93
2019-05-17T22:58:26.133Z,54.53
2019-05-17T23:00:54.229Z,54.42
2019-05-17T23:03:21.487Z,54.81
2019-05-17T23:05:48.602Z,54.47
2019-05-17T23:08:15.521Z,54.57
2019-05-17T23:10:42.348Z,54.34
2019-05-17T23:13:09.399Z,54.63
2019-05-17T23:15:37.992Z,54.90
2019-05-17T23:18:05.377Z,54.27
2019-05-17T23:20:32.531Z,54.42
2019-05-17T23:22:59.513Z,54.48
2019-05-17T23:25:26.445Z,54.47
2019-05-17T23:27:53.290Z,54.71
2019-05-17T23:30:20.376Z,54.30
2019-05-17T23:32:47.279Z,54.24
2019-05-17T23:35:14.214Z,54.78
2019-05-17T23:37:41.135Z,54.33
2019-05-17T23:40:08.078Z,54.61
2019-05-17T23:42:35.075Z,54.36
2019-05-17T23:45:02.017Z,54.87
2019-05-17T23:47:28.948Z,54.54
2019-05-17T23:49:56.011Z,54.26
2019-05-17T23:52:22.925Z,54.51
2019-05-17T23:54:52.599Z,54.53
2019-05-17T23:57:20.616Z,54.40
2019-05-17T23:59:47.521Z,54.78
